sensor_id;sensor_type;location;lat;lon;timestamp;P1;durP1;ratioP1;P2;durP2;ratioP2
63007;SDS011;49266;47.552;19.078;2022-12-11T00:01:11;28.25;;;14.95;;
63007;SDS011;49266;47.552;19.078;2022-12-11T00:05:52;25.73;;;14.88;;
63007;SDS011;49266;47.552;19.078;2022-12-11T00:10:32;29.10;;;15.65;;
63007;SDS011;49266;47.552;19.078;2022-12-11T00:15:13;27.05;;;15.02;;
63007;SDS011;49266;47.552;19.078;2022-12-11T00:19:53;29.83;;;15.85;;
63007;SDS011;49266;47.552;19.078;2022-12-11T00:24:33;25.05;;;13.70;;
63007;SDS011;49266;47.552;19.078;2022-12-11T00:29:13;31.42;;;16.08;;
63007;SDS011;49266;47.552;19.078;2022-12-11T00:33:53;30.30;;;16.00;;
63007;SDS011;49266;47.552;19.078;2022-12-11T00:38:34;28.40;;;15.52;;
63007;SDS011;49266;47.552;19.078;2022-12-11T00:43:14;30.83;;;16.42;;
63007;SDS011;49266;47.552;19.078;2022-12-11T00:47:54;27.33;;;16.08;;
63007;SDS011;49266;47.552;19.078;2022-12-11T00:52:35;32.38;;;17.10;;
63007;SDS011;49266;47.552;19.078;2022-12-11T00:57:15;29.88;;;15.35;;
63007;SDS011;49266;47.552;19.078;2022-12-11T01:01:55;32.97;;;15.13;;
63007;SDS011;49266;47.552;19.078;2022-12-11T01:06:35;32.00;;;16.92;;
63007;SDS011;49266;47.552;19.078;2022-12-11T01:11:16;30.60;;;17.00;;
63007;SDS011;49266;47.552;19.078;2022-12-11T01:15:56;25.83;;;14.77;;
63007;SDS011;49266;47.552;19.078;2022-12-11T01:20:37;31.63;;;15.23;;
63007;SDS011;49266;47.552;19.078;2022-12-11T01:25:19;27.33;;;13.55;;
63007;SDS011;49266;47.552;19.078;2022-12-11T01:29:59;26.38;;;14.40;;
63007;SDS011;49266;47.552;19.078;2022-12-11T01:34:39;28.30;;;14.98;;
63007;SDS011;49266;47.552;19.078;2022-12-11T01:39:19;22.23;;;11.88;;
63007;SDS011;49266;47.552;19.078;2022-12-11T01:48:40;24.98;;;14.13;;
63007;SDS011;49266;47.552;19.078;2022-12-11T01:53:27;22.13;;;13.05;;
63007;SDS011;49266;47.552;19.078;2022-12-11T01:58:08;26.90;;;14.50;;
63007;SDS011;49266;47.552;19.078;2022-12-11T02:02:49;24.17;;;13.63;;
63007;SDS011;49266;47.552;19.078;2022-12-11T02:07:31;24.80;;;13.77;;
63007;SDS011;49266;47.552;19.078;2022-12-11T02:12:25;21.35;;;12.23;;
63007;SDS011;49266;47.552;19.078;2022-12-11T02:21:50;21.52;;;11.48;;
63007;SDS011;49266;47.552;19.078;2022-12-11T02:36:04;17.35;;;10.30;;
63007;SDS011;49266;47.552;19.078;2022-12-11T02:40:46;15.85;;;8.02;;
63007;SDS011;49266;47.552;19.078;2022-12-11T02:45:28;16.10;;;9.80;;
63007;SDS011;49266;47.552;19.078;2022-12-11T02:50:10;14.50;;;8.40;;
63007;SDS011;49266;47.552;19.078;2022-12-11T02:54:53;13.55;;;8.65;;
63007;SDS011;49266;47.552;19.078;2022-12-11T02:59:38;12.63;;;7.88;;
63007;SDS011;49266;47.552;19.078;2022-12-11T03:04:19;13.45;;;7.47;;
63007;SDS011;49266;47.552;19.078;2022-12-11T03:09:03;12.75;;;7.30;;
63007;SDS011;49266;47.552;19.078;2022-12-11T03:13:44;10.30;;;6.38;;
63007;SDS011;49266;47.552;19.078;2022-12-11T03:18:30;12.52;;;6.88;;
63007;SDS011;49266;47.552;19.078;2022-12-11T03:28:06;10.25;;;5.90;;
63007;SDS011;49266;47.552;19.078;2022-12-11T03:32:49;9.00;;;5.40;;
63007;SDS011;49266;47.552;19.078;2022-12-11T03:37:31;8.25;;;5.40;;
63007;SDS011;49266;47.552;19.078;2022-12-11T03:42:13;7.80;;;5.20;;
63007;SDS011;49266;47.552;19.078;2022-12-11T03:46:55;7.65;;;4.72;;
63007;SDS011;49266;47.552;19.078;2022-12-11T03:51:36;8.55;;;4.50;;
63007;SDS011;49266;47.552;19.078;2022-12-11T03:56:17;6.88;;;3.88;;
63007;SDS011;49266;47.552;19.078;2022-12-11T04:00:59;5.95;;;3.78;;
63007;SDS011;49266;47.552;19.078;2022-12-11T04:05:40;5.10;;;3.35;;
63007;SDS011;49266;47.552;19.078;2022-12-11T04:10:20;7.25;;;4.97;;
63007;SDS011;49266;47.552;19.078;2022-12-11T04:15:01;8.80;;;5.25;;
63007;SDS011;49266;47.552;19.078;2022-12-11T04:19:41;11.00;;;6.18;;
63007;SDS011;49266;47.552;19.078;2022-12-11T04:24:40;9.77;;;5.93;;
63007;SDS011;49266;47.552;19.078;2022-12-11T04:29:20;8.06;;;5.36;;
63007;SDS011;49266;47.552;19.078;2022-12-11T04:34:00;8.60;;;4.93;;
63007;SDS011;49266;47.552;19.078;2022-12-11T04:38:40;10.35;;;6.18;;
63007;SDS011;49266;47.552;19.078;2022-12-11T04:43:20;12.52;;;6.30;;
63007;SDS011;49266;47.552;19.078;2022-12-11T04:48:01;11.95;;;6.00;;
63007;SDS011;49266;47.552;19.078;2022-12-11T04:52:41;15.07;;;8.02;;
63007;SDS011;49266;47.552;19.078;2022-12-11T04:57:21;15.73;;;8.45;;
63007;SDS011;49266;47.552;19.078;2022-12-11T05:02:02;14.93;;;7.97;;
63007;SDS011;49266;47.552;19.078;2022-12-11T05:06:42;15.05;;;8.50;;
63007;SDS011;49266;47.552;19.078;2022-12-11T05:11:23;12.80;;;7.60;;
63007;SDS011;49266;47.552;19.078;2022-12-11T05:16:04;14.57;;;8.05;;
63007;SDS011;49266;47.552;19.078;2022-12-11T05:20:44;13.20;;;7.65;;
63007;SDS011;49266;47.552;19.078;2022-12-11T05:25:24;15.15;;;8.50;;
63007;SDS011;49266;47.552;19.078;2022-12-11T05:30:05;16.92;;;9.20;;
63007;SDS011;49266;47.552;19.078;2022-12-11T05:34:45;14.95;;;7.85;;
63007;SDS011;49266;47.552;19.078;2022-12-11T05:39:25;14.25;;;8.35;;
63007;SDS011;49266;47.552;19.078;2022-12-11T05:44:06;16.77;;;9.10;;
63007;SDS011;49266;47.552;19.078;2022-12-11T05:48:46;13.52;;;7.72;;
63007;SDS011;49266;47.552;19.078;2022-12-11T05:53:27;13.07;;;7.53;;
63007;SDS011;49266;47.552;19.078;2022-12-11T05:58:08;15.35;;;8.10;;
63007;SDS011;49266;47.552;19.078;2022-12-11T06:02:48;15.52;;;8.38;;
63007;SDS011;49266;47.552;19.078;2022-12-11T06:07:28;10.43;;;6.45;;
63007;SDS011;49266;47.552;19.078;2022-12-11T06:12:08;12.38;;;7.20;;
63007;SDS011;49266;47.552;19.078;2022-12-11T06:16:48;14.80;;;8.68;;
63007;SDS011;49266;47.552;19.078;2022-12-11T06:21:30;13.63;;;7.22;;
63007;SDS011;49266;47.552;19.078;2022-12-11T06:26:11;16.42;;;8.02;;
63007;SDS011;49266;47.552;19.078;2022-12-11T06:30:51;14.85;;;8.45;;
63007;SDS011;49266;47.552;19.078;2022-12-11T06:35:31;12.75;;;6.57;;
63007;SDS011;49266;47.552;19.078;2022-12-11T06:40:11;13.68;;;7.53;;
63007;SDS011;49266;47.552;19.078;2022-12-11T06:44:52;14.77;;;7.80;;
63007;SDS011;49266;47.552;19.078;2022-12-11T06:49:32;15.02;;;8.30;;
63007;SDS011;49266;47.552;19.078;2022-12-11T06:54:12;14.77;;;8.05;;
63007;SDS011;49266;47.552;19.078;2022-12-11T06:58:57;14.25;;;7.88;;
63007;SDS011;49266;47.552;19.078;2022-12-11T07:03:37;12.95;;;7.30;;
63007;SDS011;49266;47.552;19.078;2022-12-11T07:08:18;12.50;;;7.72;;
63007;SDS011;49266;47.552;19.078;2022-12-11T07:12:58;12.38;;;6.82;;
63007;SDS011;49266;47.552;19.078;2022-12-11T07:17:38;18.38;;;9.40;;
63007;SDS011;49266;47.552;19.078;2022-12-11T07:22:18;10.73;;;6.75;;
63007;SDS011;49266;47.552;19.078;2022-12-11T07:26:59;11.76;;;6.78;;
63007;SDS011;49266;47.552;19.078;2022-12-11T07:31:39;11.48;;;6.53;;
63007;SDS011;49266;47.552;19.078;2022-12-11T07:36:19;11.80;;;7.63;;
63007;SDS011;49266;47.552;19.078;2022-12-11T07:41:00;13.25;;;7.55;;
63007;SDS011;49266;47.552;19.078;2022-12-11T07:45:40;13.52;;;7.13;;
63007;SDS011;49266;47.552;19.078;2022-12-11T07:50:21;10.05;;;4.93;;
63007;SDS011;49266;47.552;19.078;2022-12-11T07:55:01;11.73;;;6.25;;
63007;SDS011;49266;47.552;19.078;2022-12-11T07:59:42;12.20;;;6.68;;
63007;SDS011;49266;47.552;19.078;2022-12-11T08:04:22;9.93;;;6.43;;
63007;SDS011;49266;47.552;19.078;2022-12-11T08:09:03;10.07;;;5.82;;
63007;SDS011;49266;47.552;19.078;2022-12-11T08:13:44;10.27;;;6.05;;
63007;SDS011;49266;47.552;19.078;2022-12-11T08:18:24;9.77;;;5.97;;
63007;SDS011;49266;47.552;19.078;2022-12-11T08:23:04;11.63;;;6.53;;
63007;SDS011;49266;47.552;19.078;2022-12-11T08:27:44;10.85;;;6.78;;
63007;SDS011;49266;47.552;19.078;2022-12-11T08:32:25;12.75;;;6.53;;
63007;SDS011;49266;47.552;19.078;2022-12-11T08:37:05;7.65;;;4.72;;
63007;SDS011;49266;47.552;19.078;2022-12-11T08:41:45;9.18;;;5.75;;
63007;SDS011;49266;47.552;19.078;2022-12-11T08:46:26;10.42;;;4.92;;
63007;SDS011;49266;47.552;19.078;2022-12-11T08:51:08;8.55;;;5.50;;
63007;SDS011;49266;47.552;19.078;2022-12-11T08:55:49;8.68;;;5.20;;
63007;SDS011;49266;47.552;19.078;2022-12-11T09:00:29;7.28;;;4.85;;
63007;SDS011;49266;47.552;19.078;2022-12-11T09:05:09;6.30;;;4.30;;
63007;SDS011;49266;47.552;19.078;2022-12-11T09:09:50;7.00;;;3.78;;
63007;SDS011;49266;47.552;19.078;2022-12-11T09:14:30;6.20;;;4.22;;
63007;SDS011;49266;47.552;19.078;2022-12-11T09:19:11;6.72;;;4.43;;
63007;SDS011;49266;47.552;19.078;2022-12-11T09:23:53;7.55;;;3.95;;
63007;SDS011;49266;47.552;19.078;2022-12-11T09:28:34;6.47;;;3.90;;
63007;SDS011;49266;47.552;19.078;2022-12-11T09:33:14;6.30;;;3.80;;
63007;SDS011;49266;47.552;19.078;2022-12-11T09:37:55;6.10;;;3.78;;
63007;SDS011;49266;47.552;19.078;2022-12-11T09:47:23;6.05;;;4.07;;
63007;SDS011;49266;47.552;19.078;2022-12-11T09:56:51;5.60;;;4.10;;
63007;SDS011;49266;47.552;19.078;2022-12-11T10:01:37;6.03;;;3.83;;
63007;SDS011;49266;47.552;19.078;2022-12-11T10:06:28;6.78;;;3.67;;
63007;SDS011;49266;47.552;19.078;2022-12-11T10:20:33;5.70;;;4.03;;
63007;SDS011;49266;47.552;19.078;2022-12-11T10:25:25;5.85;;;3.97;;
63007;SDS011;49266;47.552;19.078;2022-12-11T10:39:34;6.28;;;3.88;;
63007;SDS011;49266;47.552;19.078;2022-12-11T10:44:28;5.90;;;4.03;;
63007;SDS011;49266;47.552;19.078;2022-12-11T10:49:22;5.10;;;3.28;;
63007;SDS011;49266;47.552;19.078;2022-12-11T10:54:07;7.97;;;4.15;;
63007;SDS011;49266;47.552;19.078;2022-12-11T10:58:55;7.10;;;4.35;;
63007;SDS011;49266;47.552;19.078;2022-12-11T11:03:40;5.43;;;3.60;;
63007;SDS011;49266;47.552;19.078;2022-12-11T11:08:22;6.97;;;4.07;;
63007;SDS011;49266;47.552;19.078;2022-12-11T11:13:02;8.50;;;5.15;;
63007;SDS011;49266;47.552;19.078;2022-12-11T11:17:46;6.90;;;4.05;;
63007;SDS011;49266;47.552;19.078;2022-12-11T11:22:27;8.07;;;5.43;;
63007;SDS011;49266;47.552;19.078;2022-12-11T11:32:18;8.75;;;5.20;;
63007;SDS011;49266;47.552;19.078;2022-12-11T11:36:59;6.82;;;3.90;;
63007;SDS011;49266;47.552;19.078;2022-12-11T11:41:51;6.60;;;4.65;;
63007;SDS011;49266;47.552;19.078;2022-12-11T11:46:34;5.80;;;3.72;;
63007;SDS011;49266;47.552;19.078;2022-12-11T11:56:05;7.25;;;4.55;;
63007;SDS011;49266;47.552;19.078;2022-12-11T12:00:52;7.90;;;4.70;;
63007;SDS011;49266;47.552;19.078;2022-12-11T12:05:35;7.97;;;4.90;;
63007;SDS011;49266;47.552;19.078;2022-12-11T12:10:24;7.65;;;5.00;;
63007;SDS011;49266;47.552;19.078;2022-12-11T12:15:11;6.45;;;4.22;;
63007;SDS011;49266;47.552;19.078;2022-12-11T12:19:57;8.20;;;5.25;;
63007;SDS011;49266;47.552;19.078;2022-12-11T12:48:26;8.07;;;4.88;;
63007;SDS011;49266;47.552;19.078;2022-12-11T12:53:08;10.05;;;4.93;;
63007;SDS011;49266;47.552;19.078;2022-12-11T12:57:54;7.38;;;4.50;;
63007;SDS011;49266;47.552;19.078;2022-12-11T13:02:36;9.35;;;5.70;;
63007;SDS011;49266;47.552;19.078;2022-12-11T13:07:18;10.25;;;5.25;;
63007;SDS011;49266;47.552;19.078;2022-12-11T13:11:59;9.10;;;5.47;;
63007;SDS011;49266;47.552;19.078;2022-12-11T13:16:51;10.05;;;4.85;;
63007;SDS011;49266;47.552;19.078;2022-12-11T13:21:32;8.93;;;5.65;;
63007;SDS011;49266;47.552;19.078;2022-12-11T13:26:13;10.18;;;6.10;;
63007;SDS011;49266;47.552;19.078;2022-12-11T13:30:57;9.95;;;6.15;;
63007;SDS011;49266;47.552;19.078;2022-12-11T13:35:37;10.73;;;5.63;;
63007;SDS011;49266;47.552;19.078;2022-12-11T13:40:22;9.25;;;5.13;;
63007;SDS011;49266;47.552;19.078;2022-12-11T13:45:03;10.30;;;5.90;;
63007;SDS011;49266;47.552;19.078;2022-12-11T13:49:45;10.05;;;5.55;;
63007;SDS011;49266;47.552;19.078;2022-12-11T13:54:27;12.02;;;5.95;;
63007;SDS011;49266;47.552;19.078;2022-12-11T14:04:07;9.93;;;5.72;;
63007;SDS011;49266;47.552;19.078;2022-12-11T14:08:49;11.55;;;6.45;;
63007;SDS011;49266;47.552;19.078;2022-12-11T14:13:38;13.85;;;7.80;;
63007;SDS011;49266;47.552;19.078;2022-12-11T14:18:23;11.30;;;6.85;;
63007;SDS011;49266;47.552;19.078;2022-12-11T14:27:48;15.02;;;8.10;;
63007;SDS011;49266;47.552;19.078;2022-12-11T14:32:33;12.63;;;7.57;;
63007;SDS011;49266;47.552;19.078;2022-12-11T14:37:14;15.50;;;7.95;;
63007;SDS011;49266;47.552;19.078;2022-12-11T14:46:48;14.00;;;8.43;;
63007;SDS011;49266;47.552;19.078;2022-12-11T14:51:33;12.27;;;6.97;;
